sensor_id;sensor_type;location;lat;lon;timestamp;temperature;humidity
9973;DHT22;5027;53.560;10.062;2023-03-01T00:00:09;9.10;1.00
9973;DHT22;5027;53.560;10.062;2023-03-01T00:02:39;9.20;1.00
9973;DHT22;5027;53.560;10.062;2023-03-01T00:05:07;9.20;1.00
9973;DHT22;5027;53.560;10.062;2023-03-01T00:07:34;9.20;1.00
9973;DHT22;5027;53.560;10.062;2023-03-01T00:10:00;9.20;1.00
9973;DHT22;5027;53.560;10.062;2023-03-01T00:12:27;9.20;1.00
9973;DHT22;5027;53.560;10.062;2023-03-01T00:14:54;9.10;1.00
9973;DHT22;5027;53.560;10.062;2023-03-01T00:17:20;9.10;1.00
9973;DHT22;5027;53.560;10.062;2023-03-01T00:19:47;9.10;1.00
9973;DHT22;5027;53.560;10.062;2023-03-01T00:22:14;9.10;1.00
9973;DHT22;5027;53.560;10.062;2023-03-01T00:24:40;9.00;1.00
9973;DHT22;5027;53.560;10.062;2023-03-01T00:27:07;8.90;1.00
9973;DHT22;5027;53.560;10.062;2023-03-01T00:29:34;8.90;1.00
9973;DHT22;5027;53.560;10.062;2023-03-01T00:32:00;8.90;1.00
9973;DHT22;5027;53.560;10.062;2023-03-01T00:34:27;8.90;1.00
9973;DHT22;5027;53.560;10.062;2023-03-01T00:36:54;8.80;1.00
9973;DHT22;5027;53.560;10.062;2023-03-01T00:39:20;8.90;1.00
9973;DHT22;5027;53.560;10.062;2023-03-01T00:41:47;8.90;1.00
9973;DHT22;5027;53.560;10.062;2023-03-01T00:44:14;8.90;1.00
9973;DHT22;5027;53.560;10.062;2023-03-01T00:46:40;8.90;1.00
9973;DHT22;5027;53.560;10.062;2023-03-01T00:49:07;8.90;1.00
9973;DHT22;5027;53.560;10.062;2023-03-01T00:51:34;8.90;1.00
9973;DHT22;5027;53.560;10.062;2023-03-01T00:54:02;8.80;1.00
9973;DHT22;5027;53.560;10.062;2023-03-01T00:56:29;8.70;1.00
9973;DHT22;5027;53.560;10.062;2023-03-01T00:58:57;8.80;1.00
9973;DHT22;5027;53.560;10.062;2023-03-01T01:01:27;8.70;1.00
9973;DHT22;5027;53.560;10.062;2023-03-01T01:04:00;8.70;1.00
9973;DHT22;5027;53.560;10.062;2023-03-01T01:06:33;8.60;1.00
9973;DHT22;5027;53.560;10.062;2023-03-01T01:09:01;8.60;1.00
9973;DHT22;5027;53.560;10.062;2023-03-01T01:11:29;8.70;1.00
9973;DHT22;5027;53.560;10.062;2023-03-01T01:13:56;8.70;1.00
9973;DHT22;5027;53.560;10.062;2023-03-01T01:16:25;8.70;1.00
9973;DHT22;5027;53.560;10.062;2023-03-01T01:18:52;8.80;1.00
9973;DHT22;5027;53.560;10.062;2023-03-01T01:21:22;8.80;1.00
9973;DHT22;5027;53.560;10.062;2023-03-01T01:23:49;8.80;1.00
9973;DHT22;5027;53.560;10.062;2023-03-01T01:26:22;8.80;1.00
9973;DHT22;5027;53.560;10.062;2023-03-01T01:28:50;8.80;1.00
9973;DHT22;5027;53.560;10.062;2023-03-01T01:31:17;8.80;1.00
9973;DHT22;5027;53.560;10.062;2023-03-01T01:33:45;8.80;1.00
9973;DHT22;5027;53.560;10.062;2023-03-01T01:36:12;8.80;1.00
9973;DHT22;5027;53.560;10.062;2023-03-01T01:38:39;8.80;1.00
9973;DHT22;5027;53.560;10.062;2023-03-01T01:41:06;8.80;1.00
9973;DHT22;5027;53.560;10.062;2023-03-01T01:43:36;8.80;1.00
9973;DHT22;5027;53.560;10.062;2023-03-01T01:46:31;8.80;1.00
9973;DHT22;5027;53.560;10.062;2023-03-01T01:49:02;8.80;1.00
9973;DHT22;5027;53.560;10.062;2023-03-01T01:51:36;8.80;1.00
9973;DHT22;5027;53.560;10.062;2023-03-01T01:54:10;8.80;1.00
9973;DHT22;5027;53.560;10.062;2023-03-01T01:56:41;8.80;1.00
9973;DHT22;5027;53.560;10.062;2023-03-01T01:59:09;8.90;1.00
9973;DHT22;5027;53.560;10.062;2023-03-01T02:01:37;8.90;1.00
9973;DHT22;5027;53.560;10.062;2023-03-01T02:04:03;8.90;1.00
9973;DHT22;5027;53.560;10.062;2023-03-01T02:06:45;8.80;1.00
9973;DHT22;5027;53.560;10.062;2023-03-01T02:09:15;8.80;1.00
9973;DHT22;5027;53.560;10.062;2023-03-01T02:11:44;8.80;1.00
9973;DHT22;5027;53.560;10.062;2023-03-01T02:14:10;8.80;1.00
9973;DHT22;5027;53.560;10.062;2023-03-01T02:16:37;8.70;1.00
9973;DHT22;5027;53.560;10.062;2023-03-01T02:19:05;8.70;1.00
9973;DHT22;5027;53.560;10.062;2023-03-01T02:21:50;8.80;1.00
9973;DHT22;5027;53.560;10.062;2023-03-01T02:26:56;8.70;1.00
9973;DHT22;5027;53.560;10.062;2023-03-01T02:29:23;8.80;1.00
9973;DHT22;5027;53.560;10.062;2023-03-01T02:31:52;8.70;1.00
9973;DHT22;5027;53.560;10.062;2023-03-01T02:34:23;8.70;1.00
9973;DHT22;5027;53.560;10.062;2023-03-01T02:37:02;8.70;1.00
9973;DHT22;5027;53.560;10.062;2023-03-01T02:39:37;8.70;1.00
9973;DHT22;5027;53.560;10.062;2023-03-01T02:42:12;8.70;1.00
9973;DHT22;5027;53.560;10.062;2023-03-01T02:44:39;8.80;1.00
9973;DHT22;5027;53.560;10.062;2023-03-01T02:47:06;8.80;1.00
9973;DHT22;5027;53.560;10.062;2023-03-01T02:49:35;8.80;1.00
9973;DHT22;5027;53.560;10.062;2023-03-01T02:55:24;8.80;1.00
9973;DHT22;5027;53.560;10.062;2023-03-01T02:57:51;8.70;1.00
9973;DHT22;5027;53.560;10.062;2023-03-01T03:00:21;8.70;1.00
9973;DHT22;5027;53.560;10.062;2023-03-01T03:02:51;8.70;1.00
9973;DHT22;5027;53.560;10.062;2023-03-01T03:05:30;8.70;1.00
9973;DHT22;5027;53.560;10.062;2023-03-01T03:08:00;8.60;1.00
9973;DHT22;5027;53.560;10.062;2023-03-01T03:10:33;8.60;1.00
9973;DHT22;5027;53.560;10.062;2023-03-01T03:13:07;8.60;1.00
9973;DHT22;5027;53.560;10.062;2023-03-01T03:15:35;8.60;1.00
9973;DHT22;5027;53.560;10.062;2023-03-01T03:18:04;8.50;1.00
9973;DHT22;5027;53.560;10.062;2023-03-01T03:20:31;8.40;1.00
9973;DHT22;5027;53.560;10.062;2023-03-01T03:22:59;8.50;1.00
9973;DHT22;5027;53.560;10.062;2023-03-01T03:25:27;8.50;1.00
9973;DHT22;5027;53.560;10.062;2023-03-01T03:27:55;8.50;1.00
9973;DHT22;5027;53.560;10.062;2023-03-01T03:30:29;8.50;1.00
9973;DHT22;5027;53.560;10.062;2023-03-01T03:32:57;8.40;1.00
9973;DHT22;5027;53.560;10.062;2023-03-01T03:35:30;8.40;1.00
9973;DHT22;5027;53.560;10.062;2023-03-01T03:38:03;8.40;1.00
9973;DHT22;5027;53.560;10.062;2023-03-01T03:40:34;8.50;1.00
9973;DHT22;5027;53.560;10.062;2023-03-01T03:43:01;8.40;1.00
9973;DHT22;5027;53.560;10.062;2023-03-01T03:45:28;8.40;1.00
9973;DHT22;5027;53.560;10.062;2023-03-01T03:47:55;8.50;1.00
9973;DHT22;5027;53.560;10.062;2023-03-01T03:50:22;8.60;1.00
9973;DHT22;5027;53.560;10.062;2023-03-01T03:52:48;8.50;1.00
9973;DHT22;5027;53.560;10.062;2023-03-01T03:55:15;8.50;1.00
9973;DHT22;5027;53.560;10.062;2023-03-01T03:57:47;8.60;1.00
9973;DHT22;5027;53.560;10.062;2023-03-01T04:00:20;8.60;1.00
9973;DHT22;5027;53.560;10.062;2023-03-01T04:02:48;8.60;1.00
9973;DHT22;5027;53.560;10.062;2023-03-01T04:05:17;8.50;1.00
9973;DHT22;5027;53.560;10.062;2023-03-01T04:07:44;8.60;1.00
9973;DHT22;5027;53.560;10.062;2023-03-01T04:10:15;8.60;1.00
9973;DHT22;5027;53.560;10.062;2023-03-01T04:12:43;8.70;1.00
9973;DHT22;5027;53.560;10.062;2023-03-01T04:15:11;8.70;1.00
9973;DHT22;5027;53.560;10.062;2023-03-01T04:17:45;8.70;1.00
9973;DHT22;5027;53.560;10.062;2023-03-01T04:20:18;8.70;1.00
9973;DHT22;5027;53.560;10.062;2023-03-01T04:23:12;8.70;1.00
9973;DHT22;5027;53.560;10.062;2023-03-01T04:25:45;8.80;1.00
9973;DHT22;5027;53.560;10.062;2023-03-01T04:28:12;8.80;1.00
9973;DHT22;5027;53.560;10.062;2023-03-01T04:30:39;8.70;1.00
9973;DHT22;5027;53.560;10.062;2023-03-01T04:33:07;8.70;1.00
9973;DHT22;5027;53.560;10.062;2023-03-01T04:35:35;8.70;1.00
9973;DHT22;5027;53.560;10.062;2023-03-01T04:38:03;8.80;1.00
9973;DHT22;5027;53.560;10.062;2023-03-01T04:40:30;8.80;1.00
9973;DHT22;5027;53.560;10.062;2023-03-01T04:42:57;8.80;1.00
9973;DHT22;5027;53.560;10.062;2023-03-01T04:45:24;8.80;1.00
9973;DHT22;5027;53.560;10.062;2023-03-01T04:47:50;8.80;1.00
9973;DHT22;5027;53.560;10.062;2023-03-01T04:50:18;8.90;1.00
9973;DHT22;5027;53.560;10.062;2023-03-01T04:52:50;9.00;1.00
9973;DHT22;5027;53.560;10.062;2023-03-01T04:55:16;8.90;1.00
9973;DHT22;5027;53.560;10.062;2023-03-01T04:57:43;8.90;1.00
9973;DHT22;5027;53.560;10.062;2023-03-01T05:00:11;8.80;1.00
9973;DHT22;5027;53.560;10.062;2023-03-01T05:02:56;8.90;1.00
9973;DHT22;5027;53.560;10.062;2023-03-01T05:05:44;8.90;1.00
9973;DHT22;5027;53.560;10.062;2023-03-01T05:08:11;8.90;1.00
9973;DHT22;5027;53.560;10.062;2023-03-01T05:10:51;8.90;1.00
9973;DHT22;5027;53.560;10.062;2023-03-01T05:13:20;9.00;1.00
9973;DHT22;5027;53.560;10.062;2023-03-01T05:15:58;8.90;1.00
9973;DHT22;5027;53.560;10.062;2023-03-01T05:18:26;8.90;1.00
9973;DHT22;5027;53.560;10.062;2023-03-01T05:21:03;8.90;1.00
9973;DHT22;5027;53.560;10.062;2023-03-01T05:23:31;9.00;1.00
9973;DHT22;5027;53.560;10.062;2023-03-01T05:25:59;9.10;1.00
9973;DHT22;5027;53.560;10.062;2023-03-01T05:28:27;9.00;1.00
9973;DHT22;5027;53.560;10.062;2023-03-01T05:30:55;9.00;1.00
9973;DHT22;5027;53.560;10.062;2023-03-01T05:33:22;9.00;1.00
9973;DHT22;5027;53.560;10.062;2023-03-01T05:35:50;9.10;1.00
9973;DHT22;5027;53.560;10.062;2023-03-01T05:38:18;9.10;1.00
9973;DHT22;5027;53.560;10.062;2023-03-01T05:40:47;9.00;1.00
9973;DHT22;5027;53.560;10.062;2023-03-01T05:43:16;9.00;1.00
9973;DHT22;5027;53.560;10.062;2023-03-01T05:45:43;9.00;1.00
9973;DHT22;5027;53.560;10.062;2023-03-01T05:48:11;9.00;1.00
9973;DHT22;5027;53.560;10.062;2023-03-01T05:50:42;9.00;1.00
9973;DHT22;5027;53.560;10.062;2023-03-01T05:53:11;9.00;1.00
9973;DHT22;5027;53.560;10.062;2023-03-01T05:55:39;9.00;1.00
9973;DHT22;5027;53.560;10.062;2023-03-01T05:58:09;9.00;1.00
9973;DHT22;5027;53.560;10.062;2023-03-01T06:00:36;9.00;1.00
9973;DHT22;5027;53.560;10.062;2023-03-01T06:03:03;9.00;1.00
9973;DHT22;5027;53.560;10.062;2023-03-01T06:05:30;9.10;1.00
9973;DHT22;5027;53.560;10.062;2023-03-01T06:08:00;9.10;1.00
9973;DHT22;5027;53.560;10.062;2023-03-01T06:10:27;9.10;1.00
9973;DHT22;5027;53.560;10.062;2023-03-01T06:12:54;9.10;1.00
9973;DHT22;5027;53.560;10.062;2023-03-01T06:15:21;9.10;1.00
9973;DHT22;5027;53.560;10.062;2023-03-01T06:17:48;9.10;1.00
9973;DHT22;5027;53.560;10.062;2023-03-01T06:20:18;9.10;1.00
9973;DHT22;5027;53.560;10.062;2023-03-01T06:22:45;9.10;1.00
9973;DHT22;5027;53.560;10.062;2023-03-01T06:25:14;9.20;1.00
9973;DHT22;5027;53.560;10.062;2023-03-01T06:27:42;9.20;1.00
9973;DHT22;5027;53.560;10.062;2023-03-01T06:30:10;9.20;1.00
9973;DHT22;5027;53.560;10.062;2023-03-01T06:32:38;9.10;1.00
9973;DHT22;5027;53.560;10.062;2023-03-01T06:35:12;9.10;1.00
9973;DHT22;5027;53.560;10.062;2023-03-01T06:37:41;9.20;1.00
9973;DHT22;5027;53.560;10.062;2023-03-01T06:40:09;9.20;1.00
9973;DHT22;5027;53.560;10.062;2023-03-01T06:42:39;9.20;1.00
9973;DHT22;5027;53.560;10.062;2023-03-01T06:45:07;9.20;1.00
9973;DHT22;5027;53.560;10.062;2023-03-01T06:47:33;9.30;1.00
9973;DHT22;5027;53.560;10.062;2023-03-01T06:50:02;9.30;1.00
9973;DHT22;5027;53.560;10.062;2023-03-01T06:52:29;9.30;1.00
9973;DHT22;5027;53.560;10.062;2023-03-01T06:54:56;9.30;1.00
9973;DHT22;5027;53.560;10.062;2023-03-01T06:57:22;9.30;1.00
9973;DHT22;5027;53.560;10.062;2023-03-01T06:59:49;9.20;1.00
9973;DHT22;5027;53.560;10.062;2023-03-01T07:02:16;9.30;1.00
9973;DHT22;5027;53.560;10.062;2023-03-01T07:04:43;9.20;1.00
9973;DHT22;5027;53.560;10.062;2023-03-01T07:07:10;9.20;1.00
9973;DHT22;5027;53.560;10.062;2023-03-01T07:09:36;9.20;1.00
9973;DHT22;5027;53.560;10.062;2023-03-01T07:12:03;9.20;1.00
9973;DHT22;5027;53.560;10.062;2023-03-01T07:14:30;9.20;1.00
9973;DHT22;5027;53.560;10.062;2023-03-01T07:16:57;9.20;1.00
9973;DHT22;5027;53.560;10.062;2023-03-01T07:19:23;9.20;1.00
9973;DHT22;5027;53.560;10.062;2023-03-01T07:21:50;9.20;1.00
9973;DHT22;5027;53.560;10.062;2023-03-01T07:24:17;9.20;1.00
9973;DHT22;5027;53.560;10.062;2023-03-01T07:26:43;9.30;1.00
9973;DHT22;5027;53.560;10.062;2023-03-01T07:29:10;9.30;1.00
9973;DHT22;5027;53.560;10.062;2023-03-01T07:31:37;9.40;1.00
9973;DHT22;5027;53.560;10.062;2023-03-01T07:34:04;9.30;1.00
9973;DHT22;5027;53.560;10.062;2023-03-01T07:36:30;9.30;1.00
9973;DHT22;5027;53.560;10.062;2023-03-01T07:38:58;9.30;1.00
9973;DHT22;5027;53.560;10.062;2023-03-01T07:41:24;9.40;1.00
9973;DHT22;5027;53.560;10.062;2023-03-01T07:43:51;9.40;1.00
9973;DHT22;5027;53.560;10.062;2023-03-01T07:46:18;9.40;1.00
9973;DHT22;5027;53.560;10.062;2023-03-01T07:48:45;9.40;1.00
9973;DHT22;5027;53.560;10.062;2023-03-01T07:51:12;9.40;1.00
9973;DHT22;5027;53.560;10.062;2023-03-01T07:53:39;9.50;1.00
9973;DHT22;5027;53.560;10.062;2023-03-01T07:56:10;9.50;1.00
9973;DHT22;5027;53.560;10.062;2023-03-01T07:58:38;9.60;1.00
9973;DHT22;5027;53.560;10.062;2023-03-01T08:01:07;9.60;1.00
9973;DHT22;5027;53.560;10.062;2023-03-01T08:03:35;9.70;1.00
9973;DHT22;5027;53.560;10.062;2023-03-01T08:06:04;9.60;1.00
9973;DHT22;5027;53.560;10.062;2023-03-01T08:08:32;9.60;1.00
9973;DHT22;5027;53.560;10.062;2023-03-01T08:11:00;9.50;1.00
9973;DHT22;5027;53.560;10.062;2023-03-01T08:13:28;9.50;1.00
9973;DHT22;5027;53.560;10.062;2023-03-01T08:16:04;9.50;1.00
9973;DHT22;5027;53.560;10.062;2023-03-01T08:18:31;9.50;1.00
9973;DHT22;5027;53.560;10.062;2023-03-01T08:21:03;9.50;1.00
9973;DHT22;5027;53.560;10.062;2023-03-01T08:23:29;9.50;1.00
9973;DHT22;5027;53.560;10.062;2023-03-01T08:26:10;9.60;1.00
9973;DHT22;5027;53.560;10.062;2023-03-01T08:28:39;9.60;1.00
9973;DHT22;5027;53.560;10.062;2023-03-01T08:33:51;9.60;1.00
9973;DHT22;5027;53.560;10.062;2023-03-01T08:36:26;9.70;1.00
9973;DHT22;5027;53.560;10.062;2023-03-01T08:38:53;9.70;1.00
9973;DHT22;5027;53.560;10.062;2023-03-01T08:41:20;9.60;1.00
9973;DHT22;5027;53.560;10.062;2023-03-01T08:43:47;9.60;1.00
9973;DHT22;5027;53.560;10.062;2023-03-01T08:46:14;9.50;1.00
9973;DHT22;5027;53.560;10.062;2023-03-01T08:48:41;9.60;1.00
9973;DHT22;5027;53.560;10.062;2023-03-01T08:51:10;9.70;1.00
9973;DHT22;5027;53.560;10.062;2023-03-01T08:53:38;9.60;1.00
9973;DHT22;5027;53.560;10.062;2023-03-01T08:56:05;9.70;1.00
9973;DHT22;5027;53.560;10.062;2023-03-01T08:58:32;9.80;1.00
9973;DHT22;5027;53.560;10.062;2023-03-01T09:00:59;9.80;1.00
9973;DHT22;5027;53.560;10.062;2023-03-01T09:03:26;9.80;1.00
9973;DHT22;5027;53.560;10.062;2023-03-01T09:05:59;9.80;1.00
9973;DHT22;5027;53.560;10.062;2023-03-01T09:08:26;9.80;1.00
9973;DHT22;5027;53.560;10.062;2023-03-01T09:10:53;9.80;1.00
9973;DHT22;5027;53.560;10.062;2023-03-01T09:13:20;9.80;1.00
9973;DHT22;5027;53.560;10.062;2023-03-01T09:15:46;9.90;1.00
9973;DHT22;5027;53.560;10.062;2023-03-01T09:18:13;10.00;1.00
9973;DHT22;5027;53.560;10.062;2023-03-01T09:20:39;10.00;1.00
9973;DHT22;5027;53.560;10.062;2023-03-01T09:23:06;10.00;1.00
9973;DHT22;5027;53.560;10.062;2023-03-01T09:25:34;10.00;1.00
9973;DHT22;5027;53.560;10.062;2023-03-01T09:28:01;10.10;1.00
9973;DHT22;5027;53.560;10.062;2023-03-01T09:30:27;10.20;1.00
9973;DHT22;5027;53.560;10.062;2023-03-01T09:32:56;10.20;1.00
9973;DHT22;5027;53.560;10.062;2023-03-01T09:35:23;10.20;1.00
9973;DHT22;5027;53.560;10.062;2023-03-01T09:37:50;10.20;1.00
9973;DHT22;5027;53.560;10.062;2023-03-01T09:40:20;10.20;1.00
9973;DHT22;5027;53.560;10.062;2023-03-01T09:43:06;10.20;1.00
9973;DHT22;5027;53.560;10.062;2023-03-01T09:45:37;10.60;1.00
9973;DHT22;5027;53.560;10.062;2023-03-01T09:48:15;10.60;1.00
9973;DHT22;5027;53.560;10.062;2023-03-01T09:50:43;10.60;1.00
9973;DHT22;5027;53.560;10.062;2023-03-01T09:53:18;10.70;1.00
9973;DHT22;5027;53.560;10.062;2023-03-01T09:58:47;10.70;1.00
9973;DHT22;5027;53.560;10.062;2023-03-01T10:07:30;11.00;1.00
9973;DHT22;5027;53.560;10.062;2023-03-01T10:09:59;11.10;1.00
9973;DHT22;5027;53.560;10.062;2023-03-01T10:12:35;11.10;1.00
9973;DHT22;5027;53.560;10.062;2023-03-01T10:15:53;10.90;1.00
9973;DHT22;5027;53.560;10.062;2023-03-01T10:18:18;10.80;1.00
9973;DHT22;5027;53.560;10.062;2023-03-01T10:20:59;10.80;1.00
9973;DHT22;5027;53.560;10.062;2023-03-01T10:23:30;10.80;1.00
9973;DHT22;5027;53.560;10.062;2023-03-01T10:26:38;11.00;1.00
9973;DHT22;5027;53.560;10.062;2023-03-01T10:29:11;11.20;1.00
9973;DHT22;5027;53.560;10.062;2023-03-01T10:34:27;11.50;36.00
9973;DHT22;5027;53.560;10.062;2023-03-01T10:36:58;11.50;96.90
9973;DHT22;5027;53.560;10.062;2023-03-01T10:39:27;11.80;1.00
9973;DHT22;5027;53.560;10.062;2023-03-01T10:42:01;12.10;1.00
9973;DHT22;5027;53.560;10.062;2023-03-01T10:44:54;12.30;99.90
9973;DHT22;5027;53.560;10.062;2023-03-01T10:47:28;12.40;99.90
9973;DHT22;5027;53.560;10.062;2023-03-01T10:50:00;12.30;99.90
9973;DHT22;5027;53.560;10.062;2023-03-01T10:52:34;12.20;99.90
9973;DHT22;5027;53.560;10.062;2023-03-01T10:57:42;12.30;99.90
9973;DHT22;5027;53.560;10.062;2023-03-01T11:00:17;12.30;99.90
9973;DHT22;5027;53.560;10.062;2023-03-01T11:05:25;12.00;98.40
9973;DHT22;5027;53.560;10.062;2023-03-01T11:07:57;12.10;99.10
9973;DHT22;5027;53.560;10.062;2023-03-01T11:13:16;12.10;98.10
9973;DHT22;5027;53.560;10.062;2023-03-01T11:16:02;11.90;97.20
9973;DHT22;5027;53.560;10.062;2023-03-01T11:18:30;11.90;97.30
9973;DHT22;5027;53.560;10.062;2023-03-01T11:21:12;11.90;97.60
9973;DHT22;5027;53.560;10.062;2023-03-01T11:23:39;12.10;99.90
9973;DHT22;5027;53.560;10.062;2023-03-01T11:26:09;12.40;99.90
9973;DHT22;5027;53.560;10.062;2023-03-01T11:28:40;12.30;99.00
9973;DHT22;5027;53.560;10.062;2023-03-01T11:31:10;12.20;97.30
9973;DHT22;5027;53.560;10.062;2023-03-01T11:33:49;12.00;96.90
9973;DHT22;5027;53.560;10.062;2023-03-01T11:36:28;12.10;98.10
9973;DHT22;5027;53.560;10.062;2023-03-01T11:38:57;12.10;98.50
9973;DHT22;5027;53.560;10.062;2023-03-01T11:41:32;12.20;99.60
9973;DHT22;5027;53.560;10.062;2023-03-01T11:44:03;12.20;97.40
9973;DHT22;5027;53.560;10.062;2023-03-01T11:49:49;12.20;96.70
9973;DHT22;5027;53.560;10.062;2023-03-01T11:55:12;12.30;96.30
9973;DHT22;5027;53.560;10.062;2023-03-01T11:58:01;12.30;96.30
9973;DHT22;5027;53.560;10.062;2023-03-01T12:03:25;12.30;96.50
9973;DHT22;5027;53.560;10.062;2023-03-01T12:08:48;12.30;97.30
9973;DHT22;5027;53.560;10.062;2023-03-01T12:19:33;12.40;97.90
9973;DHT22;5027;53.560;10.062;2023-03-01T12:25:16;12.50;98.00
9973;DHT22;5027;53.560;10.062;2023-03-01T12:36:07;12.70;94.90
9973;DHT22;5027;53.560;10.062;2023-03-01T12:39:19;12.70;97.40
9973;DHT22;5027;53.560;10.062;2023-03-01T12:41:56;12.70;96.90
9973;DHT22;5027;53.560;10.062;2023-03-01T12:47:40;12.70;97.50
9973;DHT22;5027;53.560;10.062;2023-03-01T12:50:20;12.80;99.30
9973;DHT22;5027;53.560;10.062;2023-03-01T12:52:56;12.70;96.50
9973;DHT22;5027;53.560;10.062;2023-03-01T13:06:45;12.80;96.20
9973;DHT22;5027;53.560;10.062;2023-03-01T13:09:53;12.90;96.30
9973;DHT22;5027;53.560;10.062;2023-03-01T13:17:57;13.00;96.60
9973;DHT22;5027;53.560;10.062;2023-03-01T13:20:34;13.00;99.90
9973;DHT22;5027;53.560;10.062;2023-03-01T13:28:38;13.20;98.10
9973;DHT22;5027;53.560;10.062;2023-03-01T13:33:56;13.00;98.80
9973;DHT22;5027;53.560;10.062;2023-03-01T13:38:58;13.00;99.20
9973;DHT22;5027;53.560;10.062;2023-03-01T13:49:59;12.90;97.50
9973;DHT22;5027;53.560;10.062;2023-03-01T13:52:47;13.00;96.80
9973;DHT22;5027;53.560;10.062;2023-03-01T13:57:48;12.90;97.80
9973;DHT22;5027;53.560;10.062;2023-03-01T14:00:28;13.00;96.50
9973;DHT22;5027;53.560;10.062;2023-03-01T14:05:32;13.00;99.50
9973;DHT22;5027;53.560;10.062;2023-03-01T14:07:59;12.90;97.60
9973;DHT22;5027;53.560;10.062;2023-03-01T14:10:42;13.00;96.70
9973;DHT22;5027;53.560;10.062;2023-03-01T14:13:30;13.00;97.10
9973;DHT22;5027;53.560;10.062;2023-03-01T14:16:59;13.00;98.80
9973;DHT22;5027;53.560;10.062;2023-03-01T14:19:15;13.00;98.50
9973;DHT22;5027;53.560;10.062;2023-03-01T14:22:23;13.00;96.00
9973;DHT22;5027;53.560;10.062;2023-03-01T14:24:59;13.10;98.00
9973;DHT22;5027;53.560;10.062;2023-03-01T14:27:33;13.10;96.70
9973;DHT22;5027;53.560;10.062;2023-03-01T14:30:04;13.10;96.90
9973;DHT22;5027;53.560;10.062;2023-03-01T14:32:36;13.10;98.30
9973;DHT22;5027;53.560;10.062;2023-03-01T14:35:30;13.00;99.20
9973;DHT22;5027;53.560;10.062;2023-03-01T14:37:57;13.10;96.30
9973;DHT22;5027;53.560;10.062;2023-03-01T14:40:30;13.10;96.10
9973;DHT22;5027;53.560;10.062;2023-03-01T14:42:59;13.20;95.20
9973;DHT22;5027;53.560;10.062;2023-03-01T14:45:29;13.20;96.00
9973;DHT22;5027;53.560;10.062;2023-03-01T14:48:00;13.10;95.80
9973;DHT22;5027;53.560;10.062;2023-03-01T14:50:33;13.20;96.10
9973;DHT22;5027;53.560;10.062;2023-03-01T14:53:03;13.20;95.30
9973;DHT22;5027;53.560;10.062;2023-03-01T14:55:38;13.30;94.70
9973;DHT22;5027;53.560;10.062;2023-03-01T14:58:18;13.30;94.40
9973;DHT22;5027;53.560;10.062;2023-03-01T15:00:50;13.40;93.60
9973;DHT22;5027;53.560;10.062;2023-03-01T15:03:27;13.40;93.40
9973;DHT22;5027;53.560;10.062;2023-03-01T15:05:58;13.40;93.50
9973;DHT22;5027;53.560;10.062;2023-03-01T15:08:26;13.40;93.30
9973;DHT22;5027;53.560;10.062;2023-03-01T15:11:28;13.40;92.90
9973;DHT22;5027;53.560;10.062;2023-03-01T15:13:52;13.40;93.60
9973;DHT22;5027;53.560;10.062;2023-03-01T15:16:25;13.40;94.20
9973;DHT22;5027;53.560;10.062;2023-03-01T15:18:54;13.30;93.20
9973;DHT22;5027;53.560;10.062;2023-03-01T15:21:31;13.40;93.00
9973;DHT22;5027;53.560;10.062;2023-03-01T15:26:57;13.30;93.00
9973;DHT22;5027;53.560;10.062;2023-03-01T15:29:30;13.40;92.80
9973;DHT22;5027;53.560;10.062;2023-03-01T15:32:06;13.30;94.90
9973;DHT22;5027;53.560;10.062;2023-03-01T15:34:36;13.30;93.70
9973;DHT22;5027;53.560;10.062;2023-03-01T15:37:06;13.30;93.00
9973;DHT22;5027;53.560;10.062;2023-03-01T15:39:45;13.30;92.70
9973;DHT22;5027;53.560;10.062;2023-03-01T15:45:11;13.30;93.00
9973;DHT22;5027;53.560;10.062;2023-03-01T15:47:40;13.40;92.00
9973;DHT22;5027;53.560;10.062;2023-03-01T15:50:25;13.40;91.70
9973;DHT22;5027;53.560;10.062;2023-03-01T15:52:53;13.40;91.80
9973;DHT22;5027;53.560;10.062;2023-03-01T15:55:26;13.30;91.70
9973;DHT22;5027;53.560;10.062;2023-03-01T15:58:05;13.30;91.90
9973;DHT22;5027;53.560;10.062;2023-03-01T16:00:35;13.20;91.80
9973;DHT22;5027;53.560;10.062;2023-03-01T16:03:02;13.20;91.50
9973;DHT22;5027;53.560;10.062;2023-03-01T16:05:32;13.20;91.90
9973;DHT22;5027;53.560;10.062;2023-03-01T16:07:59;13.20;91.40
9973;DHT22;5027;53.560;10.062;2023-03-01T16:10:27;13.10;91.60
9973;DHT22;5027;53.560;10.062;2023-03-01T16:12:54;13.10;91.70
9973;DHT22;5027;53.560;10.062;2023-03-01T16:15:32;13.00;91.80
9973;DHT22;5027;53.560;10.062;2023-03-01T16:18:00;13.00;91.80
9973;DHT22;5027;53.560;10.062;2023-03-01T16:20:29;13.00;91.80
9973;DHT22;5027;53.560;10.062;2023-03-01T16:23:01;13.00;91.90
9973;DHT22;5027;53.560;10.062;2023-03-01T16:25:28;13.00;92.00
9973;DHT22;5027;53.560;10.062;2023-03-01T16:27:55;13.00;92.20
9973;DHT22;5027;53.560;10.062;2023-03-01T16:30:22;13.00;92.20
9973;DHT22;5027;53.560;10.062;2023-03-01T16:32:50;13.00;92.50
9973;DHT22;5027;53.560;10.062;2023-03-01T16:35:19;13.00;92.70
9973;DHT22;5027;53.560;10.062;2023-03-01T16:37:48;12.90;92.70
9973;DHT22;5027;53.560;10.062;2023-03-01T16:40:26;12.90;93.00
9973;DHT22;5027;53.560;10.062;2023-03-01T16:42:55;12.90;93.40
9973;DHT22;5027;53.560;10.062;2023-03-01T16:45:27;12.90;93.40
9973;DHT22;5027;53.560;10.062;2023-03-01T16:47:54;12.90;93.50
9973;DHT22;5027;53.560;10.062;2023-03-01T16:50:22;12.80;93.60
9973;DHT22;5027;53.560;10.062;2023-03-01T16:52:49;12.70;93.90
9973;DHT22;5027;53.560;10.062;2023-03-01T16:55:16;12.70;94.20
9973;DHT22;5027;53.560;10.062;2023-03-01T16:57:43;12.60;94.40
9973;DHT22;5027;53.560;10.062;2023-03-01T17:00:11;12.60;94.40
9973;DHT22;5027;53.560;10.062;2023-03-01T17:02:40;12.50;94.40
9973;DHT22;5027;53.560;10.062;2023-03-01T17:05:08;12.50;94.60
9973;DHT22;5027;53.560;10.062;2023-03-01T17:07:36;12.50;94.60
9973;DHT22;5027;53.560;10.062;2023-03-01T17:10:08;12.40;94.70
9973;DHT22;5027;53.560;10.062;2023-03-01T17:12:35;12.40;94.50
9973;DHT22;5027;53.560;10.062;2023-03-01T17:15:03;12.40;94.40
9973;DHT22;5027;53.560;10.062;2023-03-01T17:17:31;12.40;94.30
9973;DHT22;5027;53.560;10.062;2023-03-01T17:19:58;12.40;94.60
9973;DHT22;5027;53.560;10.062;2023-03-01T17:22:24;12.40;94.10
9973;DHT22;5027;53.560;10.062;2023-03-01T17:24:51;12.40;94.20
9973;DHT22;5027;53.560;10.062;2023-03-01T17:27:17;12.30;94.20
9973;DHT22;5027;53.560;10.062;2023-03-01T17:29:44;12.30;94.30
9973;DHT22;5027;53.560;10.062;2023-03-01T17:32:11;12.30;94.60
9973;DHT22;5027;53.560;10.062;2023-03-01T17:34:38;12.30;95.00
9973;DHT22;5027;53.560;10.062;2023-03-01T17:37:05;12.20;95.30
9973;DHT22;5027;53.560;10.062;2023-03-01T17:39:32;12.10;95.50
9973;DHT22;5027;53.560;10.062;2023-03-01T17:42:03;12.10;95.80
9973;DHT22;5027;53.560;10.062;2023-03-01T17:44:31;12.10;95.90
9973;DHT22;5027;53.560;10.062;2023-03-01T17:47:03;12.10;96.00
9973;DHT22;5027;53.560;10.062;2023-03-01T17:49:31;12.10;96.30
9973;DHT22;5027;53.560;10.062;2023-03-01T17:51:58;12.00;96.10
9973;DHT22;5027;53.560;10.062;2023-03-01T17:54:25;12.00;96.20
9973;DHT22;5027;53.560;10.062;2023-03-01T17:56:52;12.00;96.10
9973;DHT22;5027;53.560;10.062;2023-03-01T17:59:18;12.00;96.10
9973;DHT22;5027;53.560;10.062;2023-03-01T18:01:45;12.00;95.80
9973;DHT22;5027;53.560;10.062;2023-03-01T18:04:12;12.10;95.70
9973;DHT22;5027;53.560;10.062;2023-03-01T18:06:39;12.00;95.70
9973;DHT22;5027;53.560;10.062;2023-03-01T18:09:09;12.00;95.60
9973;DHT22;5027;53.560;10.062;2023-03-01T18:11:37;12.10;95.40
9973;DHT22;5027;53.560;10.062;2023-03-01T18:14:03;12.10;95.10
9973;DHT22;5027;53.560;10.062;2023-03-01T18:16:30;11.90;95.20